createdAt,value
2018-08-18T00:00:58.172Z,1015.65
2018-08-18T00:01:58.235Z,1015.72
2018-08-18T00:02:58.275Z,1015.72
2018-08-18T00:03:59.585Z,1015.70
2018-08-18T00:04:58.126Z,1015.69
2018-08-18T00:05:58.150Z,1015.72
2018-08-18T00:06:58.154Z,1015.68
2018-08-18T00:07:58.077Z,1015.67
2018-08-18T00:08:58.161Z,1015.68
2018-08-18T00:09:58.155Z,1015.70
2018-08-18T00:10:58.130Z,1015.70
2018-08-18T00:11:58.142Z,1015.72
2018-08-18T00:12:58.207Z,1015.72
2018-08-18T00:13:58.137Z,1015.70
2018-08-18T00:14:58.095Z,1015.71
2018-08-18T00:15:58.196Z,1015.69
2018-08-18T00:16:58.171Z,1015.68
2018-08-18T00:17:58.141Z,1015.66
2018-08-18T00:18:58.160Z,1015.74
2018-08-18T00:19:58.187Z,1015.73
2018-08-18T00:20:58.136Z,1015.70
2018-08-18T00:21:58.143Z,1015.73
2018-08-18T00:22:58.149Z,1015.74
2018-08-18T00:23:58.129Z,1015.73
2018-08-18T00:24:58.167Z,1015.71
2018-08-18T00:25:58.143Z,1015.70
2018-08-18T00:26:58.176Z,1015.71
2018-08-18T00:27:58.204Z,1015.68
2018-08-18T00:28:58.165Z,1015.68
2018-08-18T00:29:58.157Z,1015.69
2018-08-18T00:30:58.186Z,1015.67
2018-08-18T00:31:58.185Z,1015.64
2018-08-18T00:32:58.243Z,1015.65
2018-08-18T00:33:58.162Z,1015.65
2018-08-18T00:34:58.196Z,1015.67
2018-08-18T00:35:58.178Z,1015.66
2018-08-18T00:36:58.191Z,1015.63
2018-08-18T00:37:58.217Z,1015.62
2018-08-18T00:38:58.196Z,1015.64
2018-08-18T00:39:58.196Z,1015.66
2018-08-18T00:40:58.194Z,1015.66
2018-08-18T00:41:58.244Z,1015.64
2018-08-18T00:42:58.261Z,1015.66
2018-08-18T00:43:58.168Z,1015.64
2018-08-18T00:44:58.204Z,1015.62
2018-08-18T00:45:58.245Z,1015.62
2018-08-18T00:46:58.276Z,1015.66
2018-08-18T00:47:58.251Z,1015.63
2018-08-18T00:48:58.256Z,1015.64
2018-08-18T00:49:58.260Z,1015.67
2018-08-18T00:50:58.188Z,1015.69
2018-08-18T00:51:58.227Z,1015.61
2018-08-18T00:52:58.236Z,1015.69
2018-08-18T00:53:58.255Z,1015.64
2018-08-18T00:54:58.236Z,1015.65
2018-08-18T00:55:58.221Z,1015.63
2018-08-18T00:56:58.221Z,1015.64
2018-08-18T00:57:58.228Z,1015.65
2018-08-18T00:58:58.205Z,1015.66
2018-08-18T00:59:58.319Z,1015.71
2018-08-18T01:00:58.240Z,1015.71
2018-08-18T01:01:58.371Z,1015.72
2018-08-18T01:02:58.248Z,1015.74
2018-08-18T01:03:58.285Z,1015.72
2018-08-18T01:04:58.270Z,1015.73
2018-08-18T01:05:58.285Z,1015.75
2018-08-18T01:06:58.350Z,1015.75
2018-08-18T01:07:58.256Z,1015.75
2018-08-18T01:08:58.380Z,1015.75
2018-08-18T01:09:58.258Z,1015.70
2018-08-18T01:10:58.322Z,1015.71
2018-08-18T01:11:58.320Z,1015.72
2018-08-18T01:12:58.390Z,1015.77
2018-08-18T01:13:58.652Z,1015.74
2018-08-18T01:14:58.502Z,1015.74
2018-08-18T01:15:58.311Z,1015.75
2018-08-18T01:16:58.285Z,1015.77
2018-08-18T01:17:58.294Z,1015.73
2018-08-18T01:18:58.298Z,1015.77
2018-08-18T01:19:58.336Z,1015.73
2018-08-18T01:20:58.288Z,1015.75
2018-08-18T01:21:58.283Z,1015.72
2018-08-18T01:22:58.277Z,1015.79
2018-08-18T01:23:58.253Z,1015.75
2018-08-18T01:24:58.314Z,1015.77
2018-08-18T01:25:58.264Z,1015.79
2018-08-18T01:26:58.310Z,1015.76
2018-08-18T01:27:58.395Z,1015.79
2018-08-18T01:28:58.311Z,1015.78
2018-08-18T01:29:58.305Z,1015.82
2018-08-18T01:30:58.324Z,1015.80
2018-08-18T01:31:58.307Z,1015.84
2018-08-18T01:32:58.326Z,1015.86
2018-08-18T01:33:58.474Z,1015.88
2018-08-18T01:34:58.332Z,1015.85
2018-08-18T01:35:58.345Z,1015.85
2018-08-18T01:36:58.374Z,1015.84
2018-08-18T01:37:58.326Z,1015.79
2018-08-18T01:38:58.329Z,1015.81
2018-08-18T01:39:58.303Z,1015.79
2018-08-18T01:40:58.389Z,1015.79
2018-08-18T01:41:58.376Z,1015.82
2018-08-18T01:42:58.306Z,1015.83
2018-08-18T01:43:58.337Z,1015.83
2018-08-18T01:44:58.308Z,1015.79
2018-08-18T01:45:58.317Z,1015.83
2018-08-18T01:46:58.311Z,1015.84
2018-08-18T01:47:58.342Z,1015.86
2018-08-18T01:48:58.340Z,1015.84
2018-08-18T01:49:58.372Z,1015.86
2018-08-18T01:50:58.310Z,1015.86
2018-08-18T01:51:58.407Z,1015.89
2018-08-18T01:52:58.360Z,1015.84
2018-08-18T01:53:58.332Z,1015.85
2018-08-18T01:54:58.394Z,1015.82
2018-08-18T01:55:58.354Z,1015.87
2018-08-18T01:56:58.318Z,1015.86
2018-08-18T01:57:58.410Z,1015.85
2018-08-18T01:58:58.391Z,1015.85
2018-08-18T01:59:58.400Z,1015.87
2018-08-18T02:00:58.384Z,1015.85
2018-08-18T02:01:58.361Z,1015.84
2018-08-18T02:02:58.357Z,1015.82
2018-08-18T02:03:58.406Z,1015.82
2018-08-18T02:04:58.417Z,1015.84
2018-08-18T02:05:58.412Z,1015.85
2018-08-18T02:06:58.367Z,1015.82
2018-08-18T02:07:58.413Z,1015.78
2018-08-18T02:08:58.491Z,1015.77
2018-08-18T02:09:58.370Z,1015.75
2018-08-18T02:10:58.458Z,1015.76
2018-08-18T02:11:58.592Z,1015.78
2018-08-18T02:12:58.943Z,1015.79
2018-08-18T02:13:58.409Z,1015.78
2018-08-18T02:14:58.382Z,1015.78
2018-08-18T02:15:58.432Z,1015.81
2018-08-18T02:16:58.451Z,1015.83
2018-08-18T02:17:58.456Z,1015.76
2018-08-18T02:18:58.401Z,1015.78
2018-08-18T02:19:58.577Z,1015.76
2018-08-18T02:20:58.435Z,1015.78
2018-08-18T02:21:58.530Z,1015.72
2018-08-18T02:22:59.447Z,1015.79
2018-08-18T02:23:58.417Z,1015.79
2018-08-18T02:24:58.379Z,1015.76
2018-08-18T02:25:58.440Z,1015.76
2018-08-18T02:26:58.474Z,1015.78
2018-08-18T02:27:58.412Z,1015.76
2018-08-18T02:28:58.438Z,1015.80
2018-08-18T02:29:58.450Z,1015.76
2018-08-18T02:30:58.450Z,1015.76
2018-08-18T02:31:58.504Z,1015.74
2018-08-18T02:32:58.505Z,1015.72
2018-08-18T02:33:58.439Z,1015.71
2018-08-18T02:34:58.466Z,1015.71
2018-08-18T02:35:58.446Z,1015.71
2018-08-18T02:36:58.442Z,1015.70
2018-08-18T02:37:58.451Z,1015.70
2018-08-18T02:38:58.467Z,1015.70
2018-08-18T02:39:58.532Z,1015.71
2018-08-18T02:40:58.469Z,1015.71
2018-08-18T02:41:58.413Z,1015.71
2018-08-18T02:42:58.478Z,1015.69
2018-08-18T02:43:58.422Z,1015.67
2018-08-18T02:44:58.492Z,1015.64
2018-08-18T02:45:58.504Z,1015.65
2018-08-18T02:46:58.501Z,1015.65
2018-08-18T02:47:58.492Z,1015.64
2018-08-18T02:48:58.509Z,1015.59
2018-08-18T02:49:58.519Z,1015.60
2018-08-18T02:50:58.452Z,1015.64
2018-08-18T02:51:58.528Z,1015.61
2018-08-18T02:52:58.469Z,1015.59
2018-08-18T02:53:58.505Z,1015.59
2018-08-18T02:54:58.549Z,1015.62
2018-08-18T02:55:58.496Z,1015.60
2018-08-18T02:56:58.495Z,1015.57
2018-08-18T02:57:58.514Z,1015.59
2018-08-18T02:58:58.534Z,1015.64
2018-08-18T02:59:58.599Z,1015.60
2018-08-18T03:00:58.510Z,1015.61
2018-08-18T03:01:58.478Z,1015.66
2018-08-18T03:02:58.459Z,1015.71
2018-08-18T03:03:58.504Z,1015.71
2018-08-18T03:04:58.480Z,1015.79
2018-08-18T03:05:58.564Z,1015.83
2018-08-18T03:06:58.525Z,1015.90
2018-08-18T03:07:58.577Z,1015.87
2018-08-18T03:08:58.477Z,1015.87
2018-08-18T03:09:58.499Z,1015.87
2018-08-18T03:10:58.508Z,1015.91
2018-08-18T03:11:58.512Z,1015.90
2018-08-18T03:12:58.581Z,1015.90
2018-08-18T03:13:58.586Z,1015.89
2018-08-18T03:14:58.526Z,1015.93
2018-08-18T03:15:58.693Z,1015.94
2018-08-18T03:16:58.543Z,1015.95
2018-08-18T03:17:58.534Z,1015.95
2018-08-18T03:18:58.548Z,1015.96
2018-08-18T03:19:58.562Z,1016.01
2018-08-18T03:20:58.574Z,1015.97
2018-08-18T03:21:58.595Z,1015.96
2018-08-18T03:22:58.550Z,1015.94
2018-08-18T03:23:58.566Z,1015.93
2018-08-18T03:24:58.577Z,1015.90
2018-08-18T03:25:58.506Z,1015.92
2018-08-18T03:26:58.578Z,1015.90
2018-08-18T03:27:58.535Z,1015.94
2018-08-18T03:28:58.527Z,1015.93
2018-08-18T03:29:58.546Z,1015.90
2018-08-18T03:30:58.570Z,1015.92
2018-08-18T03:31:58.540Z,1015.97
2018-08-18T03:32:58.559Z,1015.94
2018-08-18T03:33:58.537Z,1015.95
2018-08-18T03:34:58.590Z,1015.97
2018-08-18T03:35:58.570Z,1015.95
2018-08-18T03:36:58.562Z,1015.97
2018-08-18T03:37:58.546Z,1015.92
2018-08-18T03:38:58.693Z,1015.91
2018-08-18T03:39:58.589Z,1015.91
2018-08-18T03:40:58.577Z,1015.88
2018-08-18T03:41:59.473Z,1015.88
2018-08-18T03:42:58.600Z,1015.91
2018-08-18T03:43:58.547Z,1015.93
2018-08-18T03:44:58.611Z,1015.93
2018-08-18T03:45:58.554Z,1015.90
2018-08-18T03:46:58.683Z,1015.89
2018-08-18T03:47:58.616Z,1015.89
2018-08-18T03:48:58.561Z,1015.90
2018-08-18T03:49:58.588Z,1015.89
2018-08-18T03:50:58.603Z,1015.89
2018-08-18T03:51:58.636Z,1015.92
2018-08-18T03:52:58.612Z,1015.92
2018-08-18T03:53:58.675Z,1015.92
2018-08-18T03:54:58.611Z,1015.96
2018-08-18T03:55:58.635Z,1015.93
2018-08-18T03:56:58.742Z,1015.94
2018-08-18T03:57:58.809Z,1015.96
2018-08-18T03:58:58.651Z,1016.01
2018-08-18T03:59:58.639Z,1016.03
2018-08-18T04:00:58.672Z,1016.00
2018-08-18T04:01:58.636Z,1016.01
2018-08-18T04:02:58.657Z,1016.02
2018-08-18T04:03:58.677Z,1016.04
2018-08-18T04:04:58.649Z,1016.03
2018-08-18T04:05:58.668Z,1016.00
2018-08-18T04:06:58.645Z,1016.07
2018-08-18T04:07:58.675Z,1016.05
2018-08-18T04:08:58.966Z,1016.09
2018-08-18T04:09:58.626Z,1016.08
2018-08-18T04:10:58.619Z,1016.10
2018-08-18T04:11:58.620Z,1016.08
2018-08-18T04:12:58.642Z,1016.12
2018-08-18T04:13:58.632Z,1016.11
2018-08-18T04:14:58.646Z,1016.09
2018-08-18T04:15:58.667Z,1016.08
2018-08-18T04:16:58.669Z,1016.10
2018-08-18T04:17:58.649Z,1016.11
2018-08-18T04:18:58.684Z,1016.10
2018-08-18T04:19:58.668Z,1016.07
2018-08-18T04:20:58.645Z,1016.08
2018-08-18T04:21:58.668Z,1016.08
2018-08-18T04:22:58.648Z,1016.13
2018-08-18T04:23:58.647Z,1016.09
2018-08-18T04:24:58.631Z,1016.11
2018-08-18T04:25:58.637Z,1016.11
2018-08-18T04:26:58.628Z,1016.17
2018-08-18T04:27:58.699Z,1016.19
2018-08-18T04:28:58.733Z,1016.19
2018-08-18T04:29:58.735Z,1016.25
2018-08-18T04:30:58.660Z,1016.24
2018-08-18T04:31:58.694Z,1016.22
2018-08-18T04:32:58.654Z,1016.25
2018-08-18T04:33:58.660Z,1016.28
2018-08-18T04:34:58.658Z,1016.21
2018-08-18T04:35:58.687Z,1016.27
2018-08-18T04:36:58.708Z,1016.26
2018-08-18T04:37:58.670Z,1016.25
2018-08-18T04:38:58.717Z,1016.25
2018-08-18T04:39:58.658Z,1016.32
2018-08-18T04:40:58.705Z,1016.29
2018-08-18T04:41:58.714Z,1016.33
2018-08-18T04:42:58.718Z,1016.30
2018-08-18T04:43:58.770Z,1016.31
2018-08-18T04:44:58.689Z,1016.31
2018-08-18T04:45:58.714Z,1016.29
2018-08-18T04:46:58.742Z,1016.29
2018-08-18T04:47:58.789Z,1016.30
2018-08-18T04:48:58.747Z,1016.32
2018-08-18T04:49:58.692Z,1016.33
2018-08-18T04:50:58.777Z,1016.33
2018-08-18T04:51:58.724Z,1016.29
2018-08-18T04:52:58.720Z,1016.31
2018-08-18T04:53:58.702Z,1016.31
2018-08-18T04:54:58.725Z,1016.31
2018-08-18T04:55:58.772Z,1016.31
2018-08-18T04:56:58.813Z,1016.28
2018-08-18T04:57:58.726Z,1016.33
2018-08-18T04:58:58.733Z,1016.30
2018-08-18T04:59:58.745Z,1016.35
2018-08-18T05:00:58.845Z,1016.33
2018-08-18T05:01:58.752Z,1016.34
2018-08-18T05:02:58.758Z,1016.33
2018-08-18T05:03:58.786Z,1016.29
2018-08-18T05:06:31.928Z,1016.31
2018-08-18T05:24:32.196Z,1016.36
2018-08-18T05:25:32.787Z,1016.36
2018-08-18T05:26:33.273Z,1016.40
2018-08-18T05:27:33.786Z,1016.39
2018-08-18T05:28:33.291Z,1016.37
2018-08-18T05:29:32.290Z,1016.39
2018-08-18T05:30:31.189Z,1016.38
2018-08-18T05:31:31.776Z,1016.44
2018-08-18T05:32:31.168Z,1016.47
2018-08-18T05:33:31.187Z,1016.47
2018-08-18T05:34:31.167Z,1016.49
2018-08-18T05:35:31.776Z,1016.46
2018-08-18T05:36:31.790Z,1016.45
2018-08-18T05:37:31.165Z,1016.45
2018-08-18T05:38:32.788Z,1016.44
2018-08-18T05:39:34.792Z,1016.49
2018-08-18T05:40:31.171Z,1016.51
2018-08-18T05:41:33.288Z,1016.54
2018-08-18T05:42:32.811Z,1016.55
2018-08-18T05:43:32.330Z,1016.55
2018-08-18T05:44:32.297Z,1016.53
2018-08-18T05:45:34.281Z,1016.56
2018-08-18T05:46:33.787Z,1016.59
2018-08-18T05:47:33.325Z,1016.58
2018-08-18T05:48:32.785Z,1016.64
2018-08-18T05:49:33.782Z,1016.67
2018-08-18T05:50:33.287Z,1016.66
2018-08-18T05:51:32.349Z,1016.70
2018-08-18T05:52:32.296Z,1016.67
2018-08-18T05:53:32.792Z,1016.69
2018-08-18T05:54:32.957Z,1016.65
2018-08-18T05:55:32.799Z,1016.66
2018-08-18T05:56:32.821Z,1016.69
2018-08-18T05:57:33.310Z,1016.72
2018-08-18T05:58:31.419Z,1016.72
2018-08-18T05:59:31.234Z,1016.69
2018-08-18T06:00:32.873Z,1016.71
2018-08-18T06:01:33.793Z,1016.73
2018-08-18T06:02:32.931Z,1016.76
2018-08-18T06:03:31.266Z,1016.76
2018-08-18T06:04:31.350Z,1016.77
2018-08-18T06:05:31.260Z,1016.81
2018-08-18T06:06:31.256Z,1016.80
2018-08-18T06:07:31.489Z,1016.83
2018-08-18T06:08:31.298Z,1016.84
2018-08-18T06:09:31.358Z,1016.89
2018-08-18T06:10:31.964Z,1016.87
2018-08-18T06:11:31.308Z,1016.92
2018-08-18T06:12:31.306Z,1016.95
2018-08-18T06:13:31.300Z,1016.93
2018-08-18T06:14:31.345Z,1016.93
2018-08-18T06:15:31.327Z,1016.98
2018-08-18T06:16:31.371Z,1017.01
2018-08-18T06:17:31.309Z,1017.02
2018-08-18T06:18:31.315Z,1017.05
2018-08-18T06:19:31.358Z,1017.07
2018-08-18T06:20:31.366Z,1017.05
2018-08-18T06:21:32.942Z,1016.96
2018-08-18T06:22:31.346Z,1017.01
2018-08-18T06:23:31.342Z,1017.06
2018-08-18T06:24:31.356Z,1017.10
2018-08-18T06:25:31.343Z,1017.15
2018-08-18T06:26:31.364Z,1017.16
2018-08-18T06:27:31.364Z,1017.16
2018-08-18T06:28:31.333Z,1017.15
2018-08-18T06:29:31.383Z,1017.18
2018-08-18T06:30:31.373Z,1017.16
2018-08-18T06:31:33.932Z,1017.23
2018-08-18T06:32:31.439Z,1017.22
2018-08-18T06:33:31.435Z,1017.27
2018-08-18T06:34:32.935Z,1017.30
2018-08-18T06:35:31.433Z,1017.31
2018-08-18T06:36:31.443Z,1017.30
2018-08-18T06:37:31.408Z,1017.33
2018-08-18T06:38:31.423Z,1017.36
2018-08-18T06:39:31.521Z,1017.32
2018-08-18T06:40:31.462Z,1017.36
2018-08-18T06:41:31.531Z,1017.38
2018-08-18T06:42:31.429Z,1017.38
2018-08-18T06:43:31.525Z,1017.39
2018-08-18T06:44:31.501Z,1017.36
2018-08-18T06:45:31.470Z,1017.40
2018-08-18T06:46:31.583Z,1017.37
2018-08-18T06:47:31.501Z,1017.37
2018-08-18T06:48:31.519Z,1017.39
2018-08-18T06:49:31.452Z,1017.38
2018-08-18T06:50:31.493Z,1017.39
2018-08-18T06:51:31.509Z,1017.42
2018-08-18T06:52:31.502Z,1017.47
2018-08-18T06:53:31.500Z,1017.45
2018-08-18T06:54:31.625Z,1017.52
2018-08-18T06:55:31.561Z,1017.52
2018-08-18T06:56:31.615Z,1017.58
2018-08-18T06:57:31.551Z,1017.55
2018-08-18T06:58:31.591Z,1017.56
2018-08-18T06:59:31.584Z,1017.55
2018-08-18T07:00:31.593Z,1017.54
2018-08-18T07:01:31.594Z,1017.55
2018-08-18T07:02:31.633Z,1017.58
2018-08-18T07:03:31.658Z,1017.57
2018-08-18T07:04:31.627Z,1017.58
2018-08-18T07:05:31.616Z,1017.64
2018-08-18T07:06:31.662Z,1017.64
2018-08-18T07:07:31.745Z,1017.68
2018-08-18T07:08:31.673Z,1017.64
2018-08-18T07:09:31.647Z,1017.67
2018-08-18T07:10:31.690Z,1017.62
2018-08-18T07:11:31.691Z,1017.69
2018-08-18T07:12:31.683Z,1017.69
2018-08-18T07:13:31.689Z,1017.71
2018-08-18T07:14:31.692Z,1017.72
2018-08-18T07:15:31.778Z,1017.68
2018-08-18T07:16:31.724Z,1017.67
2018-08-18T07:17:31.821Z,1017.66
2018-08-18T07:18:31.734Z,1017.73
2018-08-18T07:19:31.790Z,1017.73
2018-08-18T07:20:31.756Z,1017.76
2018-08-18T07:21:31.749Z,1017.76
2018-08-18T07:22:31.744Z,1017.78
2018-08-18T07:23:33.449Z,1017.80
2018-08-18T07:24:31.789Z,1017.82
2018-08-18T07:25:31.800Z,1017.88
2018-08-18T07:26:31.841Z,1017.88
2018-08-18T07:27:32.342Z,1017.90
2018-08-18T07:28:33.475Z,1017.94
2018-08-18T07:29:31.846Z,1017.97
2018-08-18T07:30:31.861Z,1017.99
2018-08-18T07:31:31.909Z,1018.06
2018-08-18T07:32:31.976Z,1018.10
2018-08-18T07:33:31.923Z,1018.13
2018-08-18T07:34:31.858Z,1018.17
2018-08-18T07:35:31.923Z,1018.18
2018-08-18T07:36:32.012Z,1018.24
2018-08-18T07:37:32.125Z,1018.28
2018-08-18T07:38:32.044Z,1018.30
2018-08-18T07:39:31.979Z,1018.36
2018-08-18T07:40:31.986Z,1018.40
2018-08-18T07:41:31.982Z,1018.44
2018-08-18T07:42:31.977Z,1018.56
2018-08-18T07:43:31.984Z,1018.55
2018-08-18T07:44:32.016Z,1018.61
2018-08-18T07:45:32.006Z,1018.63
2018-08-18T07:46:32.087Z,1018.67
2018-08-18T07:47:32.045Z,1018.71
2018-08-18T07:48:32.165Z,1018.78
2018-08-18T07:49:32.070Z,1018.83
2018-08-18T07:50:32.103Z,1018.86
2018-08-18T07:51:32.089Z,1018.92
2018-08-18T07:52:32.091Z,1018.98
2018-08-18T07:53:32.130Z,1019.04
2018-08-18T07:54:32.165Z,1019.09
2018-08-18T07:55:32.134Z,1019.07
2018-08-18T07:56:32.118Z,1019.13
2018-08-18T07:57:32.152Z,1019.14
2018-08-18T07:58:32.169Z,1019.21
2018-08-18T07:59:32.142Z,1019.27
2018-08-18T08:00:32.199Z,1019.32
2018-08-18T08:01:32.198Z,1019.39
2018-08-18T08:02:32.200Z,1019.47
2018-08-18T08:03:32.231Z,1019.53
2018-08-18T08:04:32.248Z,1019.49
2018-08-18T08:05:32.372Z,1019.51
2018-08-18T08:06:32.276Z,1019.57
2018-08-18T08:07:32.292Z,1019.59
2018-08-18T08:08:32.373Z,1019.62
2018-08-18T08:09:32.302Z,1019.64
2018-08-18T08:10:32.323Z,1019.69
2018-08-18T08:11:32.362Z,1019.72
2018-08-18T08:12:32.395Z,1019.77
2018-08-18T08:13:32.324Z,1019.81
2018-08-18T08:14:32.422Z,1019.94
2018-08-18T08:15:32.445Z,1020.00
2018-08-18T08:16:32.398Z,1020.11
2018-08-18T08:17:32.415Z,1020.41
2018-08-18T08:18:32.423Z,1021.15
2018-08-18T08:19:32.444Z,1021.77
2018-08-18T08:20:32.450Z,1022.27
2018-08-18T08:21:32.461Z,1022.53
2018-08-18T08:22:32.476Z,1022.73
2018-08-18T08:23:32.502Z,1022.59
2018-08-18T08:24:32.529Z,1021.78
2018-08-18T08:25:32.523Z,1021.08
2018-08-18T08:26:32.535Z,1020.70
2018-08-18T08:27:32.534Z,1020.67
2018-08-18T08:28:32.545Z,1020.50
2018-08-18T08:29:32.591Z,1020.48
2018-08-18T08:30:32.596Z,1020.40
2018-08-18T08:31:32.668Z,1020.29
2018-08-18T08:32:32.718Z,1020.33
2018-08-18T08:33:32.687Z,1020.34
2018-08-18T08:34:32.641Z,1020.28
2018-08-18T08:35:32.612Z,1020.24
2018-08-18T08:36:32.671Z,1020.38
2018-08-18T08:37:32.672Z,1020.39
2018-08-18T08:38:32.678Z,1020.43
2018-08-18T08:39:32.710Z,1020.60
2018-08-18T08:40:32.714Z,1020.65
2018-08-18T08:41:32.733Z,1020.69
2018-08-18T08:42:32.747Z,1020.79
2018-08-18T08:43:32.875Z,1020.89
2018-08-18T08:44:32.888Z,1021.02
2018-08-18T08:45:33.396Z,1021.29
2018-08-18T08:46:32.854Z,1021.69
2018-08-18T08:47:32.941Z,1022.57
2018-08-18T08:48:32.934Z,1023.84
2018-08-18T08:49:32.910Z,1027.96
2018-08-18T08:50:32.900Z,1035.05
2018-08-18T08:51:32.900Z,1039.85
2018-08-18T08:52:34.516Z,1040.53
2018-08-18T08:53:32.926Z,1041.03
2018-08-18T08:54:32.993Z,1040.57
2018-08-18T08:55:33.003Z,1040.63
2018-08-18T08:56:32.995Z,1038.61
2018-08-18T08:57:35.681Z,1040.26
2018-08-18T08:58:33.076Z,1038.87
2018-08-18T08:59:33.056Z,1039.74
2018-08-18T09:00:33.047Z,1041.37
2018-08-18T09:01:36.144Z,1041.73
2018-08-18T09:02:35.059Z,1042.51
2018-08-18T09:03:33.056Z,1041.89
2018-08-18T09:04:33.916Z,1043.02
2018-08-18T09:05:33.134Z,1040.92
2018-08-18T09:06:33.112Z,1038.50
2018-08-18T09:07:33.129Z,1039.77
2018-08-18T09:08:36.014Z,1036.71
2018-08-18T09:09:33.155Z,1034.81
2018-08-18T09:10:33.208Z,1033.90
2018-08-18T09:11:33.230Z,1032.78
2018-08-18T09:12:33.190Z,1028.75
2018-08-18T09:13:33.192Z,1028.66
2018-08-18T09:14:33.238Z,1029.75
2018-08-18T09:15:33.322Z,1027.90
2018-08-18T09:16:33.310Z,1027.21
2018-08-18T09:17:33.391Z,1026.57
2018-08-18T09:18:33.295Z,1025.64
2018-08-18T09:19:33.419Z,1024.67
2018-08-18T09:20:33.453Z,1023.86
2018-08-18T09:21:33.371Z,1022.06
2018-08-18T09:22:33.366Z,1021.00
2018-08-18T09:23:33.435Z,1020.76
2018-08-18T09:24:33.405Z,1020.61
2018-08-18T09:25:33.454Z,1020.34
2018-08-18T09:26:33.505Z,1020.06
2018-08-18T09:27:33.919Z,1019.86
2018-08-18T09:28:33.502Z,1019.59
2018-08-18T09:29:33.492Z,1019.38
2018-08-18T09:30:33.548Z,1019.32
2018-08-18T09:31:33.507Z,1019.22
2018-08-18T09:32:33.637Z,1019.11
2018-08-18T09:33:33.726Z,1019.02
2018-08-18T09:34:35.549Z,1019.01
2018-08-18T09:35:33.624Z,1018.97
2018-08-18T09:36:33.651Z,1018.96
2018-08-18T09:37:33.789Z,1018.86
2018-08-18T09:38:33.736Z,1018.94
2018-08-18T09:39:33.653Z,1018.96
2018-08-18T09:40:33.688Z,1018.94
2018-08-18T09:41:33.736Z,1018.94
2018-08-18T09:42:33.744Z,1019.06
2018-08-18T09:43:33.684Z,1019.22
2018-08-18T09:44:33.753Z,1019.30
2018-08-18T09:45:33.853Z,1019.45
2018-08-18T09:46:33.812Z,1019.33
2018-08-18T09:47:33.799Z,1019.32
2018-08-18T09:48:33.843Z,1019.73
2018-08-18T09:49:33.847Z,1020.18
2018-08-18T09:50:33.939Z,1020.19
2018-08-18T09:51:33.881Z,1020.09
2018-08-18T09:52:33.997Z,1020.04
2018-08-18T09:53:33.927Z,1020.33
2018-08-18T09:54:33.918Z,1020.69
2018-08-18T09:55:33.980Z,1020.57
2018-08-18T09:56:33.965Z,1020.96
2018-08-18T09:57:34.041Z,1021.54
2018-08-18T09:58:34.006Z,1018.43
2018-08-18T09:59:34.229Z,1021.08
2018-08-18T10:00:34.045Z,1020.97
2018-08-18T10:01:34.096Z,1020.23
2018-08-18T10:02:34.076Z,1019.88
2018-08-18T10:03:34.106Z,1019.45
2018-08-18T10:04:37.081Z,1019.15
2018-08-18T10:05:34.151Z,1019.00
2018-08-18T10:06:34.242Z,1018.88
2018-08-18T10:07:34.179Z,1018.79
2018-08-18T10:08:34.208Z,1018.75
2018-08-18T10:09:34.241Z,1018.67
2018-08-18T10:10:34.243Z,1018.55
2018-08-18T10:11:34.232Z,1018.55
2018-08-18T10:12:34.273Z,1018.53
2018-08-18T10:13:34.380Z,1018.57
2018-08-18T10:14:34.289Z,1018.49
2018-08-18T10:15:34.296Z,1018.49
2018-08-18T10:16:34.366Z,1017.79
2018-08-18T10:17:34.347Z,1018.61
2018-08-18T10:18:34.337Z,1018.46
2018-08-18T10:19:34.526Z,1017.77
2018-08-18T10:20:34.508Z,1018.27
2018-08-18T10:21:34.441Z,1017.80
2018-08-18T10:22:34.466Z,1017.73
2018-08-18T10:23:34.465Z,1017.71
2018-08-18T10:24:34.508Z,1018.31
2018-08-18T10:25:34.518Z,1017.75
2018-08-18T10:26:34.490Z,1018.30
2018-08-18T10:27:34.544Z,1018.22
2018-08-18T10:28:34.570Z,1018.04
2018-08-18T10:29:35.458Z,1018.02
2018-08-18T10:30:34.630Z,1017.98
2018-08-18T10:31:36.612Z,1017.97
2018-08-18T10:32:34.647Z,1017.97
2018-08-18T10:33:34.597Z,1017.99
2018-08-18T10:34:34.638Z,1018.05
2018-08-18T10:35:34.671Z,1018.04
2018-08-18T10:36:34.694Z,1017.89
2018-08-18T10:37:34.716Z,1017.85
2018-08-18T10:38:34.739Z,1017.88
2018-08-18T10:39:35.077Z,1017.92
2018-08-18T10:40:34.903Z,1017.90
2018-08-18T10:41:34.795Z,1017.78
2018-08-18T10:42:34.793Z,1017.74
2018-08-18T10:43:34.824Z,1017.74
2018-08-18T10:44:34.827Z,1017.67
2018-08-18T10:45:34.829Z,1017.71
2018-08-18T10:46:34.905Z,1017.70
2018-08-18T10:47:34.901Z,1017.75
2018-08-18T10:48:34.948Z,1017.77
2018-08-18T10:49:34.976Z,1017.71
2018-08-18T10:50:34.903Z,1017.63
2018-08-18T10:51:34.940Z,1017.64
2018-08-18T10:52:34.960Z,1017.67
2018-08-18T10:53:35.016Z,1017.70
2018-08-18T10:54:35.009Z,1017.67
2018-08-18T10:55:35.025Z,1017.73
2018-08-18T10:56:35.062Z,1017.38
2018-08-18T10:57:35.085Z,1017.57
2018-08-18T10:58:35.148Z,1017.56
2018-08-18T10:59:35.187Z,1017.55
2018-08-18T11:00:35.165Z,1017.62
2018-08-18T11:01:35.135Z,1017.61
2018-08-18T11:02:35.186Z,1017.53
2018-08-18T11:03:35.160Z,1017.36
2018-08-18T11:04:35.235Z,1017.46
2018-08-18T11:05:35.184Z,1017.38
2018-08-18T11:06:35.205Z,1017.31
2018-08-18T11:07:35.249Z,1017.25
2018-08-18T11:08:35.222Z,1017.18
2018-08-18T11:09:35.342Z,1017.20
2018-08-18T11:10:35.272Z,1017.24
2018-08-18T11:11:35.991Z,1017.16
2018-08-18T11:12:35.301Z,1017.19
2018-08-18T11:13:35.344Z,1017.21
2018-08-18T11:14:35.340Z,1017.12
2018-08-18T11:15:35.349Z,1017.07
2018-08-18T11:16:35.409Z,1017.14
2018-08-18T11:17:35.418Z,1017.12
2018-08-18T11:18:35.380Z,1017.07
2018-08-18T11:19:35.420Z,1017.13
2018-08-18T11:20:35.399Z,1017.07
2018-08-18T11:21:35.513Z,1017.09
2018-08-18T11:22:35.448Z,1017.13
2018-08-18T11:23:35.476Z,1017.10
2018-08-18T11:24:35.476Z,1017.15
2018-08-18T11:25:35.474Z,1017.09
2018-08-18T11:26:35.475Z,1017.04
2018-08-18T11:27:35.458Z,1017.05
2018-08-18T11:28:35.557Z,1017.08
2018-08-18T11:29:35.473Z,1017.09
2018-08-18T11:30:35.520Z,1017.08
2018-08-18T11:31:35.595Z,1017.06
2018-08-18T11:32:35.583Z,1017.07
2018-08-18T11:33:35.568Z,1017.06
2018-08-18T11:34:35.584Z,1016.97
2018-08-18T11:35:35.612Z,1016.99
2018-08-18T11:36:35.564Z,1017.05
2018-08-18T11:37:35.619Z,1017.01
2018-08-18T11:38:35.613Z,1017.04
2018-08-18T11:39:35.641Z,1016.97
2018-08-18T11:40:35.637Z,1017.04
2018-08-18T11:41:35.703Z,1016.96
2018-08-18T11:42:35.648Z,1017.00
2018-08-18T11:43:35.684Z,1016.89
2018-08-18T11:44:35.656Z,1016.95
2018-08-18T11:45:35.679Z,1016.91
2018-08-18T11:46:37.613Z,1016.88
2018-08-18T11:47:35.766Z,1016.85
2018-08-18T11:48:35.809Z,1016.91
2018-08-18T11:49:35.786Z,1016.90
2018-08-18T11:50:35.738Z,1016.91
2018-08-18T11:51:35.772Z,1016.86
2018-08-18T11:52:35.733Z,1016.90
2018-08-18T11:53:35.770Z,1016.88
2018-08-18T11:54:35.798Z,1016.87
2018-08-18T11:55:35.736Z,1016.83
2018-08-18T11:56:35.768Z,1016.77
2018-08-18T11:57:35.831Z,1016.77
2018-08-18T11:58:35.802Z,1016.75
2018-08-18T11:59:35.881Z,1016.85
2018-08-18T12:00:36.521Z,1016.84
2018-08-18T12:01:35.806Z,1016.84
2018-08-18T12:02:35.809Z,1016.80
2018-08-18T12:03:35.885Z,1016.80
2018-08-18T12:04:35.836Z,1016.81
2018-08-18T12:05:35.843Z,1016.85
2018-08-18T12:06:35.950Z,1016.82
2018-08-18T12:07:36.029Z,1016.78
2018-08-18T12:08:35.961Z,1016.79
2018-08-18T12:09:35.897Z,1016.74
2018-08-18T12:10:35.904Z,1016.76
2018-08-18T12:11:35.863Z,1016.73
2018-08-18T12:12:36.038Z,1016.75
2018-08-18T12:13:35.937Z,1016.79
2018-08-18T12:14:35.996Z,1016.84
2018-08-18T12:15:36.004Z,1016.82
2018-08-18T12:16:35.965Z,1016.81
2018-08-18T12:17:35.948Z,1016.73
2018-08-18T12:18:35.975Z,1016.74
2018-08-18T12:19:35.935Z,1016.76
2018-08-18T12:20:35.981Z,1016.74
2018-08-18T12:21:36.027Z,1016.78
2018-08-18T12:22:36.009Z,1016.74
2018-08-18T12:23:36.026Z,1016.75
2018-08-18T12:24:36.532Z,1016.73